sensor_id;sensor_type;location;lat;lon;timestamp;P1;durP1;ratioP1;P2;durP2;ratioP2
40967;SDS011;57377;45.130;6.038;2022-12-08T00:00:08;9.45;;;4.68;;
40967;SDS011;57377;45.130;6.038;2022-12-08T00:02:34;11.77;;;5.30;;
40967;SDS011;57377;45.130;6.038;2022-12-08T00:04:59;10.52;;;4.90;;
40967;SDS011;57377;45.130;6.038;2022-12-08T00:07:43;12.70;;;6.22;;
40967;SDS011;57377;45.130;6.038;2022-12-08T00:10:27;12.07;;;5.45;;
40967;SDS011;57377;45.130;6.038;2022-12-08T00:12:52;12.68;;;5.75;;
40967;SDS011;57377;45.130;6.038;2022-12-08T00:15:17;11.60;;;5.25;;
40967;SDS011;57377;45.130;6.038;2022-12-08T00:17:43;12.85;;;5.43;;
40967;SDS011;57377;45.130;6.038;2022-12-08T00:20:08;9.93;;;5.15;;
40967;SDS011;57377;45.130;6.038;2022-12-08T00:22:34;11.55;;;5.88;;
40967;SDS011;57377;45.130;6.038;2022-12-08T00:25:00;8.98;;;5.15;;
40967;SDS011;57377;45.130;6.038;2022-12-08T00:27:25;9.75;;;5.15;;
40967;SDS011;57377;45.130;6.038;2022-12-08T00:29:50;10.63;;;5.78;;
40967;SDS011;57377;45.130;6.038;2022-12-08T00:32:16;9.55;;;4.70;;
40967;SDS011;57377;45.130;6.038;2022-12-08T00:34:41;11.90;;;4.57;;
40967;SDS011;57377;45.130;6.038;2022-12-08T00:37:06;8.20;;;4.75;;
40967;SDS011;57377;45.130;6.038;2022-12-08T00:39:32;13.32;;;5.15;;
40967;SDS011;57377;45.130;6.038;2022-12-08T00:41:57;11.23;;;4.70;;
40967;SDS011;57377;45.130;6.038;2022-12-08T00:44:38;8.50;;;5.20;;
40967;SDS011;57377;45.130;6.038;2022-12-08T00:47:05;11.75;;;4.85;;
40967;SDS011;57377;45.130;6.038;2022-12-08T00:49:30;10.45;;;4.95;;
40967;SDS011;57377;45.130;6.038;2022-12-08T00:51:56;11.50;;;5.47;;
40967;SDS011;57377;45.130;6.038;2022-12-08T00:54:21;10.38;;;5.22;;
40967;SDS011;57377;45.130;6.038;2022-12-08T00:56:47;9.15;;;4.82;;
40967;SDS011;57377;45.130;6.038;2022-12-08T00:59:13;14.13;;;5.60;;
40967;SDS011;57377;45.130;6.038;2022-12-08T01:01:38;9.82;;;5.22;;
40967;SDS011;57377;45.130;6.038;2022-12-08T01:04:08;12.60;;;5.03;;
40967;SDS011;57377;45.130;6.038;2022-12-08T01:06:38;9.68;;;5.05;;
40967;SDS011;57377;45.130;6.038;2022-12-08T01:09:05;8.80;;;4.85;;
40967;SDS011;57377;45.130;6.038;2022-12-08T01:11:31;9.10;;;4.60;;
40967;SDS011;57377;45.130;6.038;2022-12-08T01:13:59;9.70;;;4.72;;
40967;SDS011;57377;45.130;6.038;2022-12-08T01:16:26;12.52;;;5.85;;
40967;SDS011;57377;45.130;6.038;2022-12-08T01:18:57;10.10;;;5.55;;
40967;SDS011;57377;45.130;6.038;2022-12-08T01:21:26;9.93;;;4.78;;
40967;SDS011;57377;45.130;6.038;2022-12-08T01:23:52;9.70;;;5.25;;
40967;SDS011;57377;45.130;6.038;2022-12-08T01:26:27;10.60;;;5.53;;
40967;SDS011;57377;45.130;6.038;2022-12-08T01:28:52;9.55;;;4.80;;
40967;SDS011;57377;45.130;6.038;2022-12-08T01:31:18;10.38;;;5.18;;
40967;SDS011;57377;45.130;6.038;2022-12-08T01:33:48;8.88;;;5.05;;
40967;SDS011;57377;45.130;6.038;2022-12-08T01:36:25;11.70;;;5.50;;
40967;SDS011;57377;45.130;6.038;2022-12-08T01:39:02;13.32;;;5.65;;
40967;SDS011;57377;45.130;6.038;2022-12-08T01:42:38;12.07;;;4.72;;
40967;SDS011;57377;45.130;6.038;2022-12-08T01:45:27;8.80;;;4.90;;
40967;SDS011;57377;45.130;6.038;2022-12-08T01:48:00;9.95;;;5.18;;
40967;SDS011;57377;45.130;6.038;2022-12-08T01:50:33;8.70;;;4.55;;
40967;SDS011;57377;45.130;6.038;2022-12-08T01:58:34;8.93;;;4.55;;
40967;SDS011;57377;45.130;6.038;2022-12-08T02:01:02;10.05;;;4.68;;
40967;SDS011;57377;45.130;6.038;2022-12-08T02:05:54;8.00;;;3.80;;
40967;SDS011;57377;45.130;6.038;2022-12-08T02:08:19;7.85;;;4.65;;
40967;SDS011;57377;45.130;6.038;2022-12-08T02:10:47;11.57;;;4.72;;
40967;SDS011;57377;45.130;6.038;2022-12-08T02:13:16;8.60;;;3.60;;
40967;SDS011;57377;45.130;6.038;2022-12-08T02:29:02;7.90;;;4.00;;
40967;SDS011;57377;45.130;6.038;2022-12-08T02:34:42;12.05;;;5.00;;
40967;SDS011;57377;45.130;6.038;2022-12-08T02:46:54;7.32;;;3.90;;
40967;SDS011;57377;45.130;6.038;2022-12-08T02:49:32;7.28;;;4.00;;
40967;SDS011;57377;45.130;6.038;2022-12-08T02:52:06;7.47;;;3.95;;
40967;SDS011;57377;45.130;6.038;2022-12-08T02:54:41;7.47;;;3.63;;
40967;SDS011;57377;45.130;6.038;2022-12-08T02:57:16;7.57;;;3.88;;
40967;SDS011;57377;45.130;6.038;2022-12-08T03:05:23;9.82;;;3.90;;
40967;SDS011;57377;45.130;6.038;2022-12-08T03:07:54;8.68;;;3.40;;
40967;SDS011;57377;45.130;6.038;2022-12-08T03:10:43;9.88;;;3.10;;
40967;SDS011;57377;45.130;6.038;2022-12-08T03:13:16;6.47;;;3.40;;
40967;SDS011;57377;45.130;6.038;2022-12-08T03:15:47;6.53;;;3.20;;
40967;SDS011;57377;45.130;6.038;2022-12-08T03:18:15;8.55;;;4.20;;
40967;SDS011;57377;45.130;6.038;2022-12-08T03:20:44;7.65;;;3.65;;
40967;SDS011;57377;45.130;6.038;2022-12-08T03:23:12;9.77;;;3.92;;
40967;SDS011;57377;45.130;6.038;2022-12-08T03:25:53;15.73;;;3.70;;
40967;SDS011;57377;45.130;6.038;2022-12-08T03:28:26;10.10;;;3.83;;
40967;SDS011;57377;45.130;6.038;2022-12-08T03:31:08;18.98;;;8.50;;
40967;SDS011;57377;45.130;6.038;2022-12-08T03:33:42;9.43;;;5.57;;
40967;SDS011;57377;45.130;6.038;2022-12-08T03:36:12;11.80;;;5.00;;
40967;SDS011;57377;45.130;6.038;2022-12-08T03:38:42;8.80;;;3.80;;
40967;SDS011;57377;45.130;6.038;2022-12-08T03:41:11;5.63;;;2.80;;
40967;SDS011;57377;45.130;6.038;2022-12-08T03:46:16;11.25;;;4.72;;
40967;SDS011;57377;45.130;6.038;2022-12-08T03:48:44;11.43;;;4.32;;
40967;SDS011;57377;45.130;6.038;2022-12-08T03:51:09;6.03;;;3.25;;
40967;SDS011;57377;45.130;6.038;2022-12-08T03:53:35;7.10;;;3.30;;
40967;SDS011;57377;45.130;6.038;2022-12-08T03:56:05;7.57;;;3.67;;
40967;SDS011;57377;45.130;6.038;2022-12-08T03:58:38;7.40;;;3.58;;
40967;SDS011;57377;45.130;6.038;2022-12-08T04:01:03;6.15;;;3.58;;
40967;SDS011;57377;45.130;6.038;2022-12-08T04:03:29;8.15;;;3.33;;
40967;SDS011;57377;45.130;6.038;2022-12-08T04:05:54;4.80;;;2.60;;
40967;SDS011;57377;45.130;6.038;2022-12-08T04:08:20;7.05;;;3.20;;
40967;SDS011;57377;45.130;6.038;2022-12-08T04:10:45;7.80;;;3.22;;
40967;SDS011;57377;45.130;6.038;2022-12-08T04:13:10;7.88;;;3.90;;
40967;SDS011;57377;45.130;6.038;2022-12-08T04:15:36;9.45;;;3.30;;
40967;SDS011;57377;45.130;6.038;2022-12-08T04:18:01;6.22;;;3.00;;
40967;SDS011;57377;45.130;6.038;2022-12-08T04:20:27;6.55;;;2.70;;
40967;SDS011;57377;45.130;6.038;2022-12-08T04:22:52;11.50;;;2.83;;
40967;SDS011;57377;45.130;6.038;2022-12-08T04:25:18;4.38;;;2.30;;
40967;SDS011;57377;45.130;6.038;2022-12-08T04:27:43;6.85;;;2.60;;
40967;SDS011;57377;45.130;6.038;2022-12-08T04:30:09;4.72;;;2.30;;
40967;SDS011;57377;45.130;6.038;2022-12-08T04:32:34;4.22;;;2.42;;
40967;SDS011;57377;45.130;6.038;2022-12-08T04:35:00;3.85;;;2.33;;
40967;SDS011;57377;45.130;6.038;2022-12-08T04:37:26;4.05;;;2.00;;
40967;SDS011;57377;45.130;6.038;2022-12-08T04:39:52;3.58;;;1.88;;
40967;SDS011;57377;45.130;6.038;2022-12-08T04:42:17;2.65;;;1.23;;
40967;SDS011;57377;45.130;6.038;2022-12-08T04:44:43;2.55;;;1.60;;
40967;SDS011;57377;45.130;6.038;2022-12-08T04:47:08;2.88;;;1.40;;
40967;SDS011;57377;45.130;6.038;2022-12-08T04:49:34;4.05;;;1.10;;
40967;SDS011;57377;45.130;6.038;2022-12-08T04:51:59;1.73;;;1.00;;
40967;SDS011;57377;45.130;6.038;2022-12-08T04:54:24;2.80;;;1.13;;
40967;SDS011;57377;45.130;6.038;2022-12-08T04:56:50;1.67;;;0.90;;
40967;SDS011;57377;45.130;6.038;2022-12-08T04:59:16;2.15;;;1.00;;
40967;SDS011;57377;45.130;6.038;2022-12-08T05:01:41;1.20;;;0.82;;
40967;SDS011;57377;45.130;6.038;2022-12-08T05:04:07;3.70;;;1.60;;
40967;SDS011;57377;45.130;6.038;2022-12-08T05:06:32;2.70;;;1.83;;
40967;SDS011;57377;45.130;6.038;2022-12-08T05:08:58;3.60;;;1.65;;
40967;SDS011;57377;45.130;6.038;2022-12-08T05:11:32;3.03;;;1.60;;
40967;SDS011;57377;45.130;6.038;2022-12-08T05:13:57;3.42;;;1.70;;
40967;SDS011;57377;45.130;6.038;2022-12-08T05:16:23;3.58;;;1.50;;
40967;SDS011;57377;45.130;6.038;2022-12-08T05:18:48;1.88;;;1.30;;
40967;SDS011;57377;45.130;6.038;2022-12-08T05:21:14;4.47;;;1.60;;
40967;SDS011;57377;45.130;6.038;2022-12-08T05:23:40;2.30;;;1.20;;
40967;SDS011;57377;45.130;6.038;2022-12-08T05:26:05;2.92;;;1.00;;
40967;SDS011;57377;45.130;6.038;2022-12-08T05:28:31;4.95;;;1.42;;
40967;SDS011;57377;45.130;6.038;2022-12-08T05:30:57;2.80;;;1.20;;
40967;SDS011;57377;45.130;6.038;2022-12-08T05:33:23;2.38;;;1.48;;
40967;SDS011;57377;45.130;6.038;2022-12-08T05:35:48;1.88;;;1.35;;
40967;SDS011;57377;45.130;6.038;2022-12-08T05:38:14;3.63;;;2.03;;
40967;SDS011;57377;45.130;6.038;2022-12-08T05:40:39;4.18;;;2.95;;
40967;SDS011;57377;45.130;6.038;2022-12-08T05:43:07;11.55;;;6.53;;
40967;SDS011;57377;45.130;6.038;2022-12-08T05:45:34;11.43;;;7.32;;
40967;SDS011;57377;45.130;6.038;2022-12-08T05:47:59;5.55;;;3.78;;
40967;SDS011;57377;45.130;6.038;2022-12-08T05:50:25;16.08;;;7.80;;
40967;SDS011;57377;45.130;6.038;2022-12-08T05:52:50;18.95;;;10.30;;
40967;SDS011;57377;45.130;6.038;2022-12-08T05:55:16;21.95;;;13.20;;
40967;SDS011;57377;45.130;6.038;2022-12-08T05:57:41;17.65;;;10.45;;
40967;SDS011;57377;45.130;6.038;2022-12-08T06:00:07;5.30;;;3.33;;
40967;SDS011;57377;45.130;6.038;2022-12-08T06:02:32;9.85;;;5.30;;
40967;SDS011;57377;45.130;6.038;2022-12-08T06:04:58;6.00;;;3.55;;
40967;SDS011;57377;45.130;6.038;2022-12-08T06:07:24;17.55;;;9.38;;
40967;SDS011;57377;45.130;6.038;2022-12-08T06:09:49;10.32;;;6.10;;
40967;SDS011;57377;45.130;6.038;2022-12-08T06:12:14;6.55;;;3.85;;
40967;SDS011;57377;45.130;6.038;2022-12-08T06:14:40;4.70;;;2.40;;
40967;SDS011;57377;45.130;6.038;2022-12-08T06:17:05;4.82;;;2.35;;
40967;SDS011;57377;45.130;6.038;2022-12-08T06:19:31;3.45;;;1.85;;
40967;SDS011;57377;45.130;6.038;2022-12-08T06:21:56;2.67;;;1.70;;
40967;SDS011;57377;45.130;6.038;2022-12-08T06:24:22;1.42;;;1.30;;
40967;SDS011;57377;45.130;6.038;2022-12-08T06:26:49;1.77;;;1.17;;
40967;SDS011;57377;45.130;6.038;2022-12-08T06:29:15;12.68;;;2.33;;
40967;SDS011;57377;45.130;6.038;2022-12-08T06:31:40;3.85;;;1.50;;
40967;SDS011;57377;45.130;6.038;2022-12-08T06:34:06;2.25;;;1.00;;
40967;SDS011;57377;45.130;6.038;2022-12-08T06:36:31;0.88;;;0.55;;
40967;SDS011;57377;45.130;6.038;2022-12-08T06:38:57;1.67;;;0.70;;
40967;SDS011;57377;45.130;6.038;2022-12-08T06:41:23;1.52;;;0.88;;
40967;SDS011;57377;45.130;6.038;2022-12-08T06:43:48;2.40;;;1.00;;
40967;SDS011;57377;45.130;6.038;2022-12-08T06:46:16;2.63;;;0.95;;
40967;SDS011;57377;45.130;6.038;2022-12-08T06:48:43;1.48;;;1.00;;
40967;SDS011;57377;45.130;6.038;2022-12-08T06:51:10;2.35;;;1.20;;
40967;SDS011;57377;45.130;6.038;2022-12-08T06:53:39;4.88;;;1.52;;
40967;SDS011;57377;45.130;6.038;2022-12-08T06:56:05;2.53;;;1.43;;
40967;SDS011;57377;45.130;6.038;2022-12-08T06:58:31;3.72;;;1.40;;
40967;SDS011;57377;45.130;6.038;2022-12-08T07:00:57;2.55;;;1.38;;
40967;SDS011;57377;45.130;6.038;2022-12-08T07:03:28;2.72;;;1.40;;
40967;SDS011;57377;45.130;6.038;2022-12-08T07:05:54;4.55;;;1.27;;
40967;SDS011;57377;45.130;6.038;2022-12-08T07:08:20;9.35;;;1.70;;
40967;SDS011;57377;45.130;6.038;2022-12-08T07:10:46;4.72;;;1.95;;
40967;SDS011;57377;45.130;6.038;2022-12-08T07:13:11;7.45;;;2.30;;
40967;SDS011;57377;45.130;6.038;2022-12-08T07:15:36;16.63;;;6.03;;
40967;SDS011;57377;45.130;6.038;2022-12-08T07:18:02;28.85;;;7.05;;
40967;SDS011;57377;45.130;6.038;2022-12-08T07:20:27;16.50;;;5.55;;
40967;SDS011;57377;45.130;6.038;2022-12-08T07:22:53;9.23;;;3.53;;
40967;SDS011;57377;45.130;6.038;2022-12-08T07:25:19;7.93;;;2.72;;
40967;SDS011;57377;45.130;6.038;2022-12-08T07:27:47;4.15;;;2.42;;
40967;SDS011;57377;45.130;6.038;2022-12-08T07:30:14;4.93;;;2.80;;
40967;SDS011;57377;45.130;6.038;2022-12-08T07:32:40;3.00;;;1.95;;
40967;SDS011;57377;45.130;6.038;2022-12-08T07:35:05;6.40;;;2.30;;
40967;SDS011;57377;45.130;6.038;2022-12-08T07:37:32;4.15;;;2.30;;
40967;SDS011;57377;45.130;6.038;2022-12-08T07:39:58;3.53;;;2.33;;
40967;SDS011;57377;45.130;6.038;2022-12-08T07:42:24;3.10;;;1.52;;
40967;SDS011;57377;45.130;6.038;2022-12-08T07:44:49;2.85;;;1.35;;
40967;SDS011;57377;45.130;6.038;2022-12-08T07:47:15;2.17;;;1.35;;
40967;SDS011;57377;45.130;6.038;2022-12-08T07:49:40;3.22;;;1.95;;
40967;SDS011;57377;45.130;6.038;2022-12-08T07:52:06;5.00;;;2.28;;
40967;SDS011;57377;45.130;6.038;2022-12-08T07:54:31;2.25;;;1.10;;
40967;SDS011;57377;45.130;6.038;2022-12-08T07:56:57;6.72;;;3.10;;
40967;SDS011;57377;45.130;6.038;2022-12-08T07:59:22;8.13;;;2.28;;
40967;SDS011;57377;45.130;6.038;2022-12-08T08:01:48;10.35;;;4.40;;
40967;SDS011;57377;45.130;6.038;2022-12-08T08:04:15;9.57;;;3.92;;
40967;SDS011;57377;45.130;6.038;2022-12-08T08:06:41;10.98;;;4.60;;
40967;SDS011;57377;45.130;6.038;2022-12-08T08:09:06;10.13;;;4.38;;
40967;SDS011;57377;45.130;6.038;2022-12-08T08:11:34;9.93;;;5.25;;
40967;SDS011;57377;45.130;6.038;2022-12-08T08:14:00;15.25;;;6.68;;
40967;SDS011;57377;45.130;6.038;2022-12-08T08:16:26;18.55;;;7.90;;
40967;SDS011;57377;45.130;6.038;2022-12-08T08:18:51;12.45;;;5.10;;
40967;SDS011;57377;45.130;6.038;2022-12-08T08:21:17;14.75;;;5.80;;
40967;SDS011;57377;45.130;6.038;2022-12-08T08:23:44;14.77;;;5.35;;
40967;SDS011;57377;45.130;6.038;2022-12-08T08:26:09;7.07;;;3.65;;
40967;SDS011;57377;45.130;6.038;2022-12-08T08:28:37;7.07;;;3.30;;
40967;SDS011;57377;45.130;6.038;2022-12-08T08:31:03;4.60;;;2.90;;
40967;SDS011;57377;45.130;6.038;2022-12-08T08:33:29;6.17;;;2.77;;
40967;SDS011;57377;45.130;6.038;2022-12-08T08:35:55;11.02;;;4.28;;
40967;SDS011;57377;45.130;6.038;2022-12-08T08:38:20;8.43;;;2.95;;
40967;SDS011;57377;45.130;6.038;2022-12-08T08:40:46;19.05;;;5.70;;
40967;SDS011;57377;45.130;6.038;2022-12-08T08:43:11;23.38;;;8.25;;
40967;SDS011;57377;45.130;6.038;2022-12-08T08:45:56;9.50;;;3.50;;
40967;SDS011;57377;45.130;6.038;2022-12-08T08:48:23;10.60;;;4.93;;
40967;SDS011;57377;45.130;6.038;2022-12-08T08:50:49;22.80;;;7.05;;
40967;SDS011;57377;45.130;6.038;2022-12-08T08:53:15;27.95;;;6.93;;
40967;SDS011;57377;45.130;6.038;2022-12-08T08:55:40;17.92;;;5.80;;
40967;SDS011;57377;45.130;6.038;2022-12-08T08:58:06;50.17;;;12.18;;
40967;SDS011;57377;45.130;6.038;2022-12-08T09:00:31;32.97;;;9.60;;
40967;SDS011;57377;45.130;6.038;2022-12-08T09:02:56;24.92;;;7.45;;
40967;SDS011;57377;45.130;6.038;2022-12-08T09:05:24;13.02;;;4.70;;
40967;SDS011;57377;45.130;6.038;2022-12-08T09:07:50;9.68;;;4.78;;
40967;SDS011;57377;45.130;6.038;2022-12-08T09:10:15;16.13;;;8.57;;
40967;SDS011;57377;45.130;6.038;2022-12-08T09:12:41;9.27;;;5.13;;
40967;SDS011;57377;45.130;6.038;2022-12-08T09:15:06;8.82;;;4.43;;
40967;SDS011;57377;45.130;6.038;2022-12-08T09:17:32;6.82;;;4.18;;
40967;SDS011;57377;45.130;6.038;2022-12-08T09:19:57;7.05;;;4.00;;
40967;SDS011;57377;45.130;6.038;2022-12-08T09:22:23;4.88;;;2.88;;
40967;SDS011;57377;45.130;6.038;2022-12-08T09:24:48;7.22;;;3.55;;
40967;SDS011;57377;45.130;6.038;2022-12-08T09:27:14;18.15;;;7.47;;
40967;SDS011;57377;45.130;6.038;2022-12-08T09:29:39;8.10;;;4.07;;
40967;SDS011;57377;45.130;6.038;2022-12-08T09:32:05;19.33;;;7.00;;
40967;SDS011;57377;45.130;6.038;2022-12-08T09:34:30;12.80;;;5.82;;
40967;SDS011;57377;45.130;6.038;2022-12-08T09:36:56;12.32;;;5.32;;
40967;SDS011;57377;45.130;6.038;2022-12-08T09:39:22;9.07;;;2.85;;
40967;SDS011;57377;45.130;6.038;2022-12-08T09:41:48;5.65;;;2.92;;
40967;SDS011;57377;45.130;6.038;2022-12-08T09:46:59;5.38;;;2.65;;
40967;SDS011;57377;45.130;6.038;2022-12-08T09:49:38;3.90;;;1.58;;
40967;SDS011;57377;45.130;6.038;2022-12-08T09:52:20;6.18;;;2.08;;
40967;SDS011;57377;45.130;6.038;2022-12-08T09:54:49;6.28;;;2.83;;
40967;SDS011;57377;45.130;6.038;2022-12-08T09:57:15;3.85;;;2.00;;
40967;SDS011;57377;45.130;6.038;2022-12-08T09:59:44;4.57;;;2.28;;
40967;SDS011;57377;45.130;6.038;2022-12-08T10:02:33;6.03;;;2.13;;
40967;SDS011;57377;45.130;6.038;2022-12-08T10:04:58;12.63;;;6.15;;
40967;SDS011;57377;45.130;6.038;2022-12-08T10:10:28;5.63;;;2.38;;
40967;SDS011;57377;45.130;6.038;2022-12-08T10:13:12;5.75;;;2.42;;
40967;SDS011;57377;45.130;6.038;2022-12-08T10:16:07;7.85;;;3.40;;
40967;SDS011;57377;45.130;6.038;2022-12-08T10:18:54;21.55;;;8.55;;
40967;SDS011;57377;45.130;6.038;2022-12-08T10:21:26;17.52;;;7.40;;
40967;SDS011;57377;45.130;6.038;2022-12-08T10:23:55;15.07;;;7.07;;
40967;SDS011;57377;45.130;6.038;2022-12-08T10:26:25;17.25;;;7.95;;
40967;SDS011;57377;45.130;6.038;2022-12-08T10:28:51;10.40;;;3.80;;
40967;SDS011;57377;45.130;6.038;2022-12-08T10:31:18;4.00;;;1.70;;
40967;SDS011;57377;45.130;6.038;2022-12-08T10:33:45;5.82;;;1.80;;
40967;SDS011;57377;45.130;6.038;2022-12-08T10:36:42;3.92;;;1.67;;
40967;SDS011;57377;45.130;6.038;2022-12-08T10:42:05;7.00;;;1.95;;
40967;SDS011;57377;45.130;6.038;2022-12-08T10:44:53;8.23;;;2.47;;
40967;SDS011;57377;45.130;6.038;2022-12-08T10:47:34;7.30;;;3.15;;
40967;SDS011;57377;45.130;6.038;2022-12-08T10:50:40;5.97;;;2.92;;
40967;SDS011;57377;45.130;6.038;2022-12-08T10:56:35;5.95;;;1.75;;
40967;SDS011;57377;45.130;6.038;2022-12-08T11:09:31;6.00;;;3.20;;
40967;SDS011;57377;45.130;6.038;2022-12-08T11:12:16;4.47;;;1.90;;
40967;SDS011;57377;45.130;6.038;2022-12-08T11:32:33;7.82;;;3.90;;
40967;SDS011;57377;45.130;6.038;2022-12-08T11:35:09;27.15;;;10.38;;
40967;SDS011;57377;45.130;6.038;2022-12-08T11:37:57;31.50;;;11.40;;
40967;SDS011;57377;45.130;6.038;2022-12-08T11:40:33;32.17;;;12.70;;
40967;SDS011;57377;45.130;6.038;2022-12-08T11:43:15;15.18;;;6.68;;
40967;SDS011;57377;45.130;6.038;2022-12-08T11:45:59;16.92;;;6.65;;
40967;SDS011;57377;45.130;6.038;2022-12-08T11:57:36;3.80;;;2.03;;
40967;SDS011;57377;45.130;6.038;2022-12-08T12:00:13;6.00;;;2.65;;
40967;SDS011;57377;45.130;6.038;2022-12-08T12:02:46;5.30;;;2.47;;
40967;SDS011;57377;45.130;6.038;2022-12-08T12:09:56;5.22;;;2.28;;
40967;SDS011;57377;45.130;6.038;2022-12-08T12:19:41;5.47;;;2.83;;
40967;SDS011;57377;45.130;6.038;2022-12-08T12:23:18;7.50;;;2.60;;
40967;SDS011;57377;45.130;6.038;2022-12-08T15:22:43;10.60;;;4.20;;
40967;SDS011;57377;45.130;6.038;2022-12-08T15:26:25;12.88;;;4.80;;
40967;SDS011;57377;45.130;6.038;2022-12-08T15:32:42;21.50;;;6.47;;
40967;SDS011;57377;45.130;6.038;2022-12-08T15:36:07;14.38;;;5.20;;
40967;SDS011;57377;45.130;6.038;2022-12-08T15:39:36;17.58;;;5.95;;
40967;SDS011;57377;45.130;6.038;2022-12-08T15:42:42;11.65;;;4.70;;
40967;SDS011;57377;45.130;6.038;2022-12-08T15:49:18;13.82;;;4.57;;
40967;SDS011;57377;45.130;6.038;2022-12-08T15:52:27;21.48;;;7.75;;
40967;SDS011;57377;45.130;6.038;2022-12-08T15:55:27;37.67;;;11.68;;
40967;SDS011;57377;45.130;6.038;2022-12-08T15:58:28;21.08;;;8.63;;
40967;SDS011;57377;45.130;6.038;2022-12-08T16:01:48;18.38;;;7.18;;
40967;SDS011;57377;45.130;6.038;2022-12-08T16:05:16;13.20;;;5.43;;
40967;SDS011;57377;45.130;6.038;2022-12-08T16:07:56;11.73;;;3.53;;
40967;SDS011;57377;45.130;6.038;2022-12-08T16:10:38;9.23;;;4.88;;
40967;SDS011;57377;45.130;6.038;2022-12-08T16:13:17;10.50;;;4.55;;
40967;SDS011;57377;45.130;6.038;2022-12-08T16:16:08;11.65;;;4.20;;
40967;SDS011;57377;45.130;6.038;2022-12-08T16:18:47;10.73;;;3.70;;
40967;SDS011;57377;45.130;6.038;2022-12-08T16:21:34;7.82;;;2.67;;
40967;SDS011;57377;45.130;6.038;2022-12-08T16:24:00;10.05;;;3.03;;
40967;SDS011;57377;45.130;6.038;2022-12-08T16:26:25;13.15;;;4.90;;
40967;SDS011;57377;45.130;6.038;2022-12-08T16:28:56;11.65;;;4.63;;
40967;SDS011;57377;45.130;6.038;2022-12-08T16:31:25;20.92;;;5.30;;
40967;SDS011;57377;45.130;6.038;2022-12-08T16:33:55;26.10;;;9.50;;
40967;SDS011;57377;45.130;6.038;2022-12-08T16:36:26;31.17;;;10.95;;
40967;SDS011;57377;45.130;6.038;2022-12-08T16:38:56;22.38;;;7.53;;
40967;SDS011;57377;45.130;6.038;2022-12-08T16:41:27;15.05;;;6.00;;
40967;SDS011;57377;45.130;6.038;2022-12-08T16:44:18;36.65;;;11.88;;
40967;SDS011;57377;45.130;6.038;2022-12-08T16:46:44;28.98;;;11.20;;
40967;SDS011;57377;45.130;6.038;2022-12-08T16:49:10;20.70;;;8.10;;
40967;SDS011;57377;45.130;6.038;2022-12-08T16:51:35;16.08;;;6.53;;
40967;SDS011;57377;45.130;6.038;2022-12-08T16:54:02;14.05;;;5.28;;
40967;SDS011;57377;45.130;6.038;2022-12-08T16:56:28;18.98;;;7.70;;
40967;SDS011;57377;45.130;6.038;2022-12-08T16:58:59;16.13;;;6.65;;
40967;SDS011;57377;45.130;6.038;2022-12-08T17:01:32;19.90;;;7.40;;
40967;SDS011;57377;45.130;6.038;2022-12-08T17:04:00;18.52;;;7.38;;
40967;SDS011;57377;45.130;6.038;2022-12-08T17:06:35;19.13;;;7.38;;
40967;SDS011;57377;45.130;6.038;2022-12-08T17:09:07;18.13;;;5.85;;
40967;SDS011;57377;45.130;6.038;2022-12-08T17:11:35;20.15;;;6.88;;
40967;SDS011;57377;45.130;6.038;2022-12-08T17:14:41;14.98;;;5.30;;
40967;SDS011;57377;45.130;6.038;2022-12-08T17:17:38;16.40;;;7.57;;
40967;SDS011;57377;45.130;6.038;2022-12-08T17:20:56;13.02;;;5.45;;
40967;SDS011;57377;45.130;6.038;2022-12-08T17:24:14;8.90;;;3.75;;
40967;SDS011;57377;45.130;6.038;2022-12-08T17:26:41;5.60;;;1.65;;
40967;SDS011;57377;45.130;6.038;2022-12-08T17:29:33;7.40;;;3.05;;
40967;SDS011;57377;45.130;6.038;2022-12-08T17:32:32;5.95;;;2.78;;
40967;SDS011;57377;45.130;6.038;2022-12-08T17:39:05;12.40;;;5.38;;
40967;SDS011;57377;45.130;6.038;2022-12-08T17:42:00;24.23;;;8.93;;
40967;SDS011;57377;45.130;6.038;2022-12-08T17:44:52;21.83;;;7.88;;
40967;SDS011;57377;45.130;6.038;2022-12-08T17:47:56;17.35;;;6.93;;
40967;SDS011;57377;45.130;6.038;2022-12-08T17:50:54;9.68;;;3.33;;
40967;SDS011;57377;45.130;6.038;2022-12-08T17:54:35;10.55;;;2.97;;
40967;SDS011;57377;45.130;6.038;2022-12-08T22:23:44;17.48;;;7.95;;
40967;SDS011;57377;45.130;6.038;2022-12-08T22:26:45;15.43;;;6.63;;
40967;SDS011;57377;45.130;6.038;2022-12-08T22:29:41;13.18;;;6.28;;
40967;SDS011;57377;45.130;6.038;2022-12-08T22:32:29;13.65;;;5.75;;
